Time;durP1;ratioP1;P1;durP2;ratioP2;P2;SDS_P1;SDS_P2;PMS_P1;PMS_P2;Temp;Humidity;BMP_temperature;BMP_pressure;BME280_temperature;BME280_humidity;BME280_pressure;Samples;Min_cycle;Max_cycle;Signal;HPM_P1;HPM_P2
2021/08/24 03:32:47;;;;;;;9.73;4.73;;;;;;;18.60;61.48;99426.22;8582245;22;20206;-82
2021/08/24 03:36:09;;;;;;;8.83;4.07;;;;;;;18.70;60.89;99431.91;8577053;23;20224;-82
2021/08/24 03:39:31;;;;;;;6.47;4.83;;;;;;;18.40;61.70;99439.47;8594806;23;20555;-82
2021/08/24 03:42:53;;;;;;;6.33;5.23;;;;;;;17.92;62.51;99434.22;8596642;23;20723;-82
2021/08/24 03:46:15;;;;;;;6.50;4.77;;;;;;;18.39;61.70;99432.34;8577773;23;20182;-82
2021/08/24 03:49:38;;;;;;;5.20;4.70;;;;;;;18.39;61.70;99443.28;8577984;23;20194;-82
2021/08/24 03:53:17;;;;;;;7.57;4.60;;;;;;;18.13;61.35;99417.25;8597576;22;20682;-83
2021/08/24 03:57:05;;;;;;;6.33;4.33;;;;;;;17.43;60.40;99341.09;8618867;23;20672;-83
2021/08/24 04:07:56;;;;;;;10.17;5.43;;;;;;;17.75;62.54;99441.44;8610197;22;20215;-84
2021/08/24 04:19:32;;;;;;;16.17;6.00;;;;;;;17.01;62.65;99413.03;8603433;22;20283;-83
2021/08/24 05:43:36;;;;;;;6.33;5.07;;;;;;;17.18;63.09;99425.78;8586712;22;20613;-90
2021/08/24 05:46:59;;;;;;;4.97;4.33;;;;;;;17.59;63.07;99452.22;8589902;23;20177;-89
2021/08/24 05:50:21;;;;;;;4.10;3.67;;;;;;;18.42;60.46;99457.28;8574385;23;20232;-89
2021/08/24 05:53:43;;;;;;;3.80;3.50;;;;;;;17.87;61.08;99387.72;8588923;23;20171;-90
2021/08/24 05:57:05;;;;;;;3.60;3.30;;;;;;;18.12;60.34;99463.91;8588968;23;20207;-89
2021/08/24 06:00:28;;;;;;;4.30;3.60;;;;;;;17.85;61.58;99452.63;8588216;23;20182;-89
2021/08/24 06:03:50;;;;;;;5.23;3.40;;;;;;;18.01;60.42;99431.97;8588787;23;20183;-89
2021/08/24 06:07:13;;;;;;;3.80;3.50;;;;;;;18.50;60.17;99439.66;8588784;23;20181;-89
2021/08/24 06:10:36;;;;;;;3.50;3.20;;;;;;;18.64;59.13;99416.50;8588198;23;20272;-90
2021/08/24 06:13:59;;;;;;;3.73;3.43;;;;;;;19.50;57.48;99475.34;8577451;23;20506;-89
2021/08/24 06:17:23;;;;;;;3.77;3.47;;;;;;;19.37;57.40;99463.88;8596520;23;20198;-89
2021/08/24 06:20:44;;;;;;;5.80;4.60;;;;;;;18.58;58.26;99439.31;8588024;23;20174;-89
2021/08/24 06:24:07;;;;;;;4.53;4.13;;;;;;;18.20;59.13;99378.91;8588314;23;20181;-89
2021/08/24 06:27:29;;;;;;;7.53;4.90;;;;;;;18.62;60.56;99394.88;8588366;23;20623;-89
2021/08/24 06:30:51;;;;;;;6.70;4.40;;;;;;;19.75;58.15;99477.72;8587998;23;20174;-89
2021/08/24 06:34:15;;;;;;;6.87;4.30;;;;;;;18.80;57.89;99350.16;8574173;23;20182;-89
2021/08/24 06:37:37;;;;;;;4.90;4.50;;;;;;;19.08;58.51;99471.22;8588022;23;20204;-90
2021/08/24 06:40:59;;;;;;;7.93;5.20;;;;;;;18.96;60.13;99467.72;8587975;23;20174;-89
2021/08/24 06:44:20;;;;;;;5.40;4.90;;;;;;;18.31;59.95;99353.50;8626702;23;20197;-89
2021/08/24 06:47:42;;;;;;;5.60;5.00;;;;;;;19.14;59.33;99448.38;8630482;22;20173;-89
2021/08/24 06:51:06;;;;;;;5.97;4.70;;;;;;;19.77;57.78;99446.28;8629688;22;20196;-90
2021/08/24 06:54:29;;;;;;;5.57;4.93;;;;;;;19.75;57.81;99462.09;8630186;22;20174;-89
2021/08/24 06:57:51;;;;;;;4.97;4.23;;;;;;;19.13;59.38;99452.19;8629889;22;20200;-90
2021/08/24 07:01:15;;;;;;;6.23;5.10;;;;;;;18.61;60.00;99411.50;8630042;23;20169;-90
2021/08/24 07:04:36;;;;;;;7.13;5.00;;;;;;;18.42;60.48;99385.44;8629873;23;20174;-90
2021/08/24 07:08:00;;;;;;;5.77;5.07;;;;;;;18.15;59.54;99305.94;8630035;23;20185;-90
2021/08/24 07:11:22;;;;;;;6.00;5.47;;;;;;;19.47;58.70;99461.34;8629218;23;20178;-90
2021/08/24 07:14:44;;;;;;;5.97;5.37;;;;;;;18.63;58.97;99333.72;8629976;22;20177;-89
2021/08/24 07:18:06;;;;;;;6.03;5.17;;;;;;;19.14;58.94;99434.72;8629835;22;20208;-90
2021/08/24 07:21:28;;;;;;;6.20;5.37;;;;;;;18.94;58.19;99382.41;8615200;23;20178;-90
2021/08/24 07:24:52;;;;;;;6.20;5.40;;;;;;;19.76;58.29;99439.13;8629478;23;20170;-90
2021/08/24 07:28:14;;;;;;;5.97;5.37;;;;;;;19.96;57.34;99457.78;8629286;22;20174;-89
2021/08/24 07:31:37;;;;;;;5.87;5.20;;;;;;;19.93;57.41;99478.28;8629805;23;20177;-89
2021/08/24 07:34:59;;;;;;;6.30;5.33;;;;;;;20.47;57.05;99477.53;8629912;22;20180;-89
2021/08/24 07:38:22;;;;;;;5.77;4.63;;;;;;;19.35;56.92;99438.69;8629411;23;20193;-90
2021/08/24 07:41:45;;;;;;;7.10;4.57;;;;;;;19.58;57.28;99413.94;8629493;22;20177;-89
2021/08/24 07:45:08;;;;;;;4.97;4.47;;;;;;;20.71;55.29;99487.19;8629520;22;20173;-88
2021/08/24 07:48:30;;;;;;;7.33;4.40;;;;;;;20.50;55.44;99493.47;8629259;22;20197;-89
2021/08/24 07:51:54;;;;;;;6.90;4.70;;;;;;;20.45;53.98;99430.38;8588866;23;20181;-90
2021/08/24 07:55:16;;;;;;;4.53;4.07;;;;;;;20.62;54.91;99455.81;8629399;22;20510;-89
2021/08/24 07:58:39;;;;;;;4.73;4.23;;;;;;;20.53;53.50;99393.50;8628940;23;20201;-89
2021/08/24 08:02:01;;;;;;;4.43;4.03;;;;;;;21.33;53.17;99490.44;8629361;23;20174;-89
2021/08/24 08:05:23;;;;;;;4.20;3.80;;;;;;;20.55;52.11;99367.50;8629587;22;20170;-89
2021/08/24 08:08:46;;;;;;;3.83;3.53;;;;;;;21.48;51.31;99472.22;8629060;23;20173;-89
2021/08/24 08:12:08;;;;;;;4.97;3.37;;;;;;;20.78;52.39;99450.25;8629112;23;20174;-89
2021/08/24 08:15:33;;;;;;;4.60;3.67;;;;;;;20.19;54.84;99460.38;8629508;23;20478;-89
2021/08/24 08:18:54;;;;;;;4.83;3.83;;;;;;;20.10;53.85;99388.78;8614922;23;20186;-89
2021/08/24 08:22:16;;;;;;;6.10;3.60;;;;;;;20.60;51.90;99447.03;8628814;22;20186;-89
2021/08/24 08:25:38;;;;;;;4.13;3.33;;;;;;;20.84;51.26;99476.66;8631773;23;20196;-89
2021/08/24 08:29:03;;;;;;;4.97;3.70;;;;;;;20.18;52.11;99317.19;8631405;23;20175;-90
2021/08/24 08:32:44;;;;;;;5.23;3.43;;;;;;;20.97;50.09;99340.28;8617058;23;20506;-89
2021/08/24 08:36:06;;;;;;;4.10;3.70;;;;;;;21.19;50.01;99465.34;8421340;23;20173;-89
2021/08/24 08:39:28;;;;;;;7.53;4.10;;;;;;;19.12;53.70;99384.94;8421169;23;20210;-89
2021/08/24 08:42:57;;;;;;;4.90;3.83;;;;;;;19.46;53.72;99377.63;8440013;23;20181;-89
2021/08/24 08:46:28;;;;;;;4.07;3.40;;;;;;;20.67;52.28;99518.91;8424210;23;20182;-88
2021/08/24 08:49:56;;;;;;;4.30;3.43;;;;;;;20.73;51.42;99470.47;8462011;23;20192;-89
2021/08/24 08:53:24;;;;;;;4.20;3.70;;;;;;;20.76;51.35;99467.22;8462182;23;20183;-89
2021/08/24 08:56:49;;;;;;;3.45;3.15;;;;;;;21.25;51.19;99437.69;8462049;23;20172;-88
2021/08/24 09:00:17;;;;;;;3.93;3.00;;;;;;;22.61;48.03;99454.22;8461754;23;20401;-89
2021/08/24 09:03:53;;;;;;;4.90;3.07;;;;;;;22.72;47.94;99433.94;8462078;23;20240;-89
2021/08/24 09:07:20;;;;;;;4.70;3.50;;;;;;;22.33;46.69;99435.34;8448541;23;20176;-89
2021/08/24 09:10:44;;;;;;;4.93;3.47;;;;;;;21.23;48.43;99357.56;8461954;23;20167;-89
2021/08/24 09:14:09;;;;;;;3.60;3.30;;;;;;;21.00;50.42;99483.22;8613588;23;20189;-89
2021/08/24 09:17:33;;;;;;;4.17;3.20;;;;;;;21.94;49.30;99497.13;8637268;23;20199;-89
2021/08/24 09:21:00;;;;;;;4.20;3.80;;;;;;;21.96;49.06;99489.44;8639408;23;20185;-88
2021/08/24 09:24:28;;;;;;;5.07;3.53;;;;;;;21.55;49.42;99481.06;8622857;23;20170;-88
2021/08/24 09:27:55;;;;;;;3.73;3.43;;;;;;;21.38;49.75;99477.59;8632638;23;20167;-88
2021/08/24 09:31:20;;;;;;;5.70;3.73;;;;;;;21.15;49.49;99425.78;8631396;23;20162;-87
2021/08/24 09:34:45;;;;;;;4.57;3.83;;;;;;;20.90;51.04;99438.38;8629796;23;20158;-88
2021/08/24 09:38:12;;;;;;;3.37;3.07;;;;;;;21.27;50.96;99440.19;8629812;23;20382;-87
2021/08/24 09:41:36;;;;;;;4.67;3.67;;;;;;;21.52;49.78;99495.31;8630293;23;20159;-87
2021/08/24 09:45:00;;;;;;;5.80;4.90;;;;;;;20.26;53.14;99480.19;8615557;23;20162;-87
2021/08/24 09:48:22;;;;;;;3.93;3.53;;;;;;;20.23;54.53;99516.31;8616807;22;20197;-87
2021/08/24 09:51:46;;;;;;;3.83;3.50;;;;;;;21.23;51.96;99499.38;8635065;23;20232;-87
2021/08/24 09:55:13;;;;;;;4.10;3.70;;;;;;;21.36;52.92;99501.75;8616090;23;20178;-88
2021/08/24 09:58:38;;;;;;;5.90;3.87;;;;;;;20.57;51.51;99468.63;8632810;23;20483;-87
2021/08/24 10:02:00;;;;;;;4.90;3.97;;;;;;;20.91;51.91;99505.81;8619367;23;20586;-87
2021/08/24 10:05:37;;;;;;;5.43;4.30;;;;;;;20.52;52.66;99430.19;8616079;23;20182;-87
2021/08/24 10:09:13;;;;;;;6.23;3.90;;;;;;;21.42;50.29;99484.25;8615833;23;20178;-87
2021/08/24 10:12:35;;;;;;;4.27;3.90;;;;;;;20.42;53.76;99461.03;8616306;23;20165;-87
2021/08/24 10:16:04;;;;;;;5.60;3.77;;;;;;;21.69;51.08;99496.06;8616742;23;20192;-87
2021/08/24 10:19:28;;;;;;;4.07;3.67;;;;;;;21.89;50.02;99475.13;8602730;23;20623;-87
2021/08/24 10:22:52;;;;;;;3.80;3.50;;;;;;;22.32;48.30;99410.88;8616047;23;20189;-87
2021/08/24 10:26:22;;;;;;;3.73;3.43;;;;;;;23.49;46.73;99495.31;8615987;23;20182;-87
2021/08/24 10:29:51;;;;;;;4.17;3.70;;;;;;;21.75;51.12;99493.13;8615169;23;20166;-87
2021/08/24 10:33:25;;;;;;;3.90;3.50;;;;;;;22.60;47.36;99482.81;8589594;23;20256;-87
2021/08/24 10:36:48;;;;;;;3.97;3.67;;;;;;;21.36;50.49;99471.56;8615865;23;20184;-87
2021/08/24 10:40:22;;;;;;;5.17;3.80;;;;;;;21.70;52.07;99475.75;8628962;23;20204;-87
2021/08/24 10:43:51;;;;;;;5.43;3.50;;;;;;;21.44;50.08;99403.31;8628958;23;20603;-87
2021/08/24 10:47:25;;;;;;;7.23;3.27;;;;;;;22.36;47.34;99352.38;8615285;23;20166;-87
2021/08/24 10:51:01;;;;;;;3.63;3.33;;;;;;;22.88;48.16;99437.56;8615756;22;20635;-88
2021/08/24 10:54:43;;;;;;;4.27;3.70;;;;;;;22.66;47.22;99415.75;8615736;23;20591;-87
2021/08/24 10:58:08;;;;;;;3.57;3.27;;;;;;;23.00;47.86;99485.75;8629233;23;20188;-88
2021/08/24 11:01:35;;;;;;;5.10;3.60;;;;;;;22.75;48.07;99460.91;8628699;23;20546;-88
2021/08/24 11:05:04;;;;;;;3.90;3.60;;;;;;;22.20;48.52;99382.78;8615462;23;20168;-88
2021/08/24 11:08:37;;;;;;;4.53;3.20;;;;;;;22.77;48.28;99444.94;8615206;23;20616;-88
2021/08/24 11:12:05;;;;;;;3.63;3.33;;;;;;;22.87;47.27;99379.00;8629563;23;20161;-88
2021/08/24 11:15:37;;;;;;;3.67;3.37;;;;;;;23.15;47.16;99493.25;8628892;23;20157;-88
2021/08/24 11:19:05;;;;;;;4.03;3.63;;;;;;;21.69;48.85;99325.88;8614603;23;20189;-88
2021/08/24 11:22:31;;;;;;;3.73;3.37;;;;;;;22.94;49.56;99470.34;8615391;23;20208;-88
2021/08/24 11:26:00;;;;;;;4.33;3.93;;;;;;;22.48;47.77;99371.44;8629139;23;20162;-88
2021/08/24 11:29:28;;;;;;;4.60;3.00;;;;;;;22.81;47.70;99437.84;8628509;23;20489;-88
2021/08/24 11:32:56;;;;;;;3.30;3.00;;;;;;;23.73;47.17;99506.66;8628761;23;20160;-88
2021/08/24 11:36:24;;;;;;;3.33;3.03;;;;;;;23.19;47.29;99433.88;8628898;23;20241;-88
2021/08/24 11:39:49;;;;;;;3.70;3.33;;;;;;;23.45;46.91;99496.13;8628741;23;20515;-88
2021/08/24 11:43:17;;;;;;;3.33;3.10;;;;;;;23.21;48.12;99497.69;8615001;23;20244;-88
2021/08/24 11:46:47;;;;;;;3.43;3.17;;;;;;;22.36;48.47;99332.31;8615320;23;20612;-88
2021/08/24 11:50:11;;;;;;;4.67;3.57;;;;;;;23.04;48.29;99497.88;8628342;22;20198;-88
2021/08/24 11:53:39;;;;;;;3.67;3.37;;;;;;;22.74;48.96;99474.91;8629201;23;20211;-88
2021/08/24 11:57:10;;;;;;;5.93;3.43;;;;;;;22.71;47.82;99316.81;8628907;23;20158;-88
2021/08/24 12:00:34;;;;;;;4.53;2.90;;;;;;;23.96;47.92;99495.97;8630759;22;20523;-88
2021/08/24 12:03:59;;;;;;;4.10;3.70;;;;;;;23.62;46.80;99387.41;8632449;23;20183;-88
2021/08/24 12:07:27;;;;;;;3.83;3.20;;;;;;;22.94;46.45;99310.81;8632052;22;20261;-89
2021/08/24 12:11:13;;;;;;;4.10;3.70;;;;;;;23.02;46.34;99312.19;8631335;23;20168;-88
2021/08/24 12:14:41;;;;;;;4.90;2.97;;;;;;;22.32;49.75;99454.84;8636601;22;20185;-88
2021/08/24 12:18:10;;;;;;;3.87;3.33;;;;;;;21.75;49.15;99383.31;8631507;23;20183;-88
2021/08/24 12:21:35;;;;;;;6.70;3.63;;;;;;;21.79;48.16;99298.50;8631949;22;20185;-88
2021/08/24 12:25:02;;;;;;;3.57;3.13;;;;;;;22.41;48.64;99332.31;8631405;23;20816;-88
2021/08/24 12:28:42;;;;;;;3.40;3.10;;;;;;;23.62;47.59;99496.72;8631424;22;20175;-88
2021/08/24 12:32:22;;;;;;;3.37;3.07;;;;;;;21.80;50.40;99465.72;8632041;22;20174;-89
2021/08/24 12:36:03;;;;;;;3.30;2.87;;;;;;;22.45;50.75;99501.13;8631200;22;20173;-88
2021/08/24 12:39:42;;;;;;;3.90;3.20;;;;;;;22.47;50.19;99416.47;8631119;22;20473;-88
2021/08/24 12:43:25;;;;;;;3.50;3.20;;;;;;;22.89;49.64;99456.56;8631345;23;20187;-89
2021/08/24 12:46:48;;;;;;;4.43;3.23;;;;;;;23.08;47.38;99331.16;8634279;22;20254;-88
2021/08/24 12:50:45;;;;;;;4.67;3.43;;;;;;;23.48;46.88;99377.22;8631259;22;20199;-89
2021/08/24 12:54:10;;;;;;;4.00;3.30;;;;;;;23.77;47.36;99428.72;8582424;23;20484;-88
2021/08/24 12:57:37;;;;;;;3.00;2.80;;;;;;;24.31;45.41;99388.44;8590536;23;20321;-88
2021/08/24 13:01:14;;;;;;;4.07;3.67;;;;;;;23.76;45.64;99406.94;8630424;23;20638;-88
2021/08/24 13:04:39;;;;;;;3.63;3.03;;;;;;;24.00;46.16;99450.22;8625209;22;20171;-88
2021/08/24 13:08:11;;;;;;;3.97;3.40;;;;;;;24.00;46.45;99457.66;8616557;23;20181;-88
2021/08/24 13:16:12;;;;;;;3.73;3.33;;;;;;;23.41;46.26;99382.16;8613414;22;20516;-89
2021/08/24 13:19:34;;;;;;;3.60;3.30;;;;;;;23.44;47.79;99404.47;8629946;22;20204;-89
2021/08/24 13:23:00;;;;;;;4.10;3.70;;;;;;;23.02;46.13;99313.00;8630868;23;20181;-89
2021/08/24 13:26:24;;;;;;;4.17;3.50;;;;;;;23.70;46.54;99388.78;8630772;23;20175;-88
2021/08/24 13:29:48;;;;;;;3.73;3.30;;;;;;;24.40;45.89;99496.22;8629823;22;20199;-88
2021/08/24 13:33:17;;;;;;;3.70;3.40;;;;;;;23.95;45.66;99419.13;8630309;22;20249;-88
2021/08/24 13:36:44;;;;;;;3.83;3.53;;;;;;;23.20;46.73;99352.97;8615990;22;20180;-89
2021/08/24 13:40:14;;;;;;;4.17;3.47;;;;;;;23.78;45.30;99300.09;8630070;22;20197;-89
2021/08/24 13:43:42;;;;;;;4.37;3.80;;;;;;;22.96;46.90;99376.56;8630038;22;20187;-88
2021/08/24 13:47:10;;;;;;;3.83;3.47;;;;;;;23.73;46.14;99360.69;8630376;23;20624;-88
2021/08/24 13:50:35;;;;;;;4.47;3.67;;;;;;;23.18;45.97;99393.69;8629847;22;20278;-88
2021/08/24 13:54:00;;;;;;;4.30;3.90;;;;;;;22.84;46.28;99310.78;8631025;22;20510;-89
2021/08/24 13:57:25;;;;;;;4.53;3.70;;;;;;;23.31;48.46;99393.16;8630254;23;20210;-89
2021/08/24 14:01:09;;;;;;;3.77;3.40;;;;;;;24.06;47.28;99462.91;8629892;23;20649;-89
2021/08/24 14:04:44;;;;;;;3.50;3.20;;;;;;;23.74;47.81;99434.78;8608333;23;20634;-89
2021/08/24 14:08:06;;;;;;;5.43;4.00;;;;;;;23.74;48.15;99437.53;8630593;23;20164;-89
2021/08/24 14:11:28;;;;;;;3.73;3.43;;;;;;;24.04;46.45;99410.00;8616748;23;20189;-89
2021/08/24 14:14:58;;;;;;;5.97;3.97;;;;;;;23.08;48.42;99413.69;8589859;23;20179;-89
2021/08/24 14:18:23;;;;;;;4.53;3.47;;;;;;;23.68;47.82;99432.28;8629883;22;20183;-89
2021/08/24 14:21:46;;;;;;;4.20;3.87;;;;;;;23.76;47.14;99440.00;8630527;23;20163;-89
2021/08/24 14:25:09;;;;;;;4.87;4.00;;;;;;;23.44;47.06;99373.38;8634947;23;20187;-88
2021/08/24 14:28:34;;;;;;;4.30;3.90;;;;;;;23.88;47.43;99424.91;8630108;23;20175;-88
2021/08/24 14:31:58;;;;;;;4.63;4.23;;;;;;;24.58;45.25;99399.16;8629961;23;20185;-89
2021/08/24 14:35:47;;;;;;;5.20;3.97;;;;;;;24.62;45.30;99463.69;8629890;22;20503;-89
2021/08/24 14:39:13;;;;;;;4.40;4.00;;;;;;;24.44;46.56;99472.50;8629481;23;20205;-89
2021/08/24 14:42:42;;;;;;;4.83;4.07;;;;;;;24.28;46.29;99433.13;8630442;23;20179;-90
2021/08/24 14:46:04;;;;;;;4.40;4.00;;;;;;;24.48;45.45;99366.09;8630370;23;20176;-90
2021/08/24 14:49:29;;;;;;;5.63;4.17;;;;;;;24.31;45.43;99358.13;8629323;22;20208;-90
2021/08/24 14:52:53;;;;;;;5.57;4.10;;;;;;;24.49;45.74;99398.06;8630340;22;20239;-91
2021/08/24 14:56:26;;;;;;;4.43;4.03;;;;;;;23.92;46.56;99353.53;8630202;22;20179;-92
2021/08/24 14:59:48;;;;;;;4.00;3.70;;;;;;;24.23;44.38;99352.38;8627350;23;20206;-91
2021/08/24 15:03:27;;;;;;;4.53;4.13;;;;;;;24.17;45.84;99414.09;8630530;23;20163;-92
2021/08/24 15:06:51;;;;;;;6.30;4.43;;;;;;;24.89;45.45;99470.47;8630372;22;20188;-93
2021/08/24 15:10:13;;;;;;;4.80;4.40;;;;;;;24.92;43.92;99389.06;8629897;22;20181;-91
2021/08/24 15:13:45;;;;;;;4.97;4.50;;;;;;;24.86;43.71;99305.53;8629263;22;20171;-92
2021/08/24 15:17:11;;;;;;;4.97;4.57;;;;;;;25.79;43.88;99414.75;8630610;22;20177;-93
2021/08/24 15:20:40;;;;;;;5.20;4.40;;;;;;;25.54;43.54;99379.03;8630167;22;20193;-93
2021/08/24 15:24:07;;;;;;;5.03;4.43;;;;;;;25.35;43.14;99416.75;8614903;22;20291;-93
2021/08/24 15:27:31;;;;;;;6.20;4.43;;;;;;;25.09;43.53;99382.09;8629989;23;20182;-93
2021/08/24 15:31:02;;;;;;;5.30;4.13;;;;;;;25.19;43.81;99412.38;8629629;22;20508;-93
2021/08/24 15:34:24;;;;;;;6.83;4.63;;;;;;;24.45;44.11;99339.06;8629952;22;20164;-92
2021/08/24 15:37:50;;;;;;;6.30;4.97;;;;;;;24.64;43.09;99293.22;8630509;23;20175;-93
2021/08/24 15:41:15;;;;;;;8.37;5.07;;;;;;;24.97;43.69;99320.06;8629852;22;20211;-93
2021/08/24 15:44:42;;;;;;;6.93;4.53;;;;;;;24.04;43.12;99263.16;8632264;23;20489;-93
2021/08/24 15:48:05;;;;;;;5.87;4.60;;;;;;;24.03;44.41;99276.13;8616320;22;20184;-92
2021/08/24 15:51:41;;;;;;;5.47;4.97;;;;;;;25.11;43.45;99413.00;8630181;23;20182;-93
2021/08/24 16:08:35;;;;;;;7.20;5.20;;;;;;;24.45;44.29;99369.38;8352256;23;20182;-93
2021/08/24 16:11:57;;;;;;;5.87;5.03;;;;;;;23.34;44.33;99236.56;8364722;23;20228;-92
2021/08/24 16:15:21;;;;;;;6.77;5.33;;;;;;;24.48;44.17;99377.91;8381072;23;20301;-92
2021/08/24 16:18:44;;;;;;;5.90;5.40;;;;;;;23.90;44.31;99276.69;8380193;23;20176;-92
2021/08/24 16:22:31;;;;;;;5.60;5.10;;;;;;;24.27;44.50;99282.66;8343397;23;20183;-92
2021/08/24 16:26:05;;;;;;;6.13;5.43;;;;;;;23.79;45.56;99308.06;8344418;23;20404;-92
2021/08/24 16:33:15;;;;;;;6.67;5.97;;;;;;;24.77;43.90;99356.88;8485640;23;20215;-92
2021/08/24 16:40:40;;;;;;;6.63;5.90;;;;;;;24.36;44.37;99322.28;8609704;22;20196;-93
2021/08/24 16:48:38;;;;;;;6.57;5.97;;;;;;;24.08;46.67;99347.72;8592035;22;20208;-93
2021/08/24 16:52:05;;;;;;;6.50;5.90;;;;;;;23.60;45.79;99275.91;8632310;22;20177;-93
2021/08/24 16:55:29;;;;;;;7.33;6.00;;;;;;;24.14;45.87;99301.69;8633094;22;20174;-92
2021/08/24 16:58:51;;;;;;;7.43;6.27;;;;;;;24.83;45.57;99386.09;8618173;22;20182;-93
2021/08/24 17:02:14;;;;;;;6.07;5.57;;;;;;;23.84;46.23;99290.72;8631873;22;20186;-92
2021/08/24 17:05:36;;;;;;;7.23;6.40;;;;;;;24.69;45.71;99367.66;8591730;23;20723;-93
2021/08/24 17:09:04;;;;;;;6.27;5.70;;;;;;;24.30;44.26;99215.09;8633093;23;20171;-92
2021/08/24 17:12:26;;;;;;;6.73;6.13;;;;;;;25.55;41.62;99270.22;8632699;22;20204;-93
2021/08/24 17:16:02;;;;;;;9.57;6.07;;;;;;;25.51;42.00;99359.47;8632602;23;20600;-93
2021/08/24 17:19:37;;;;;;;7.37;5.87;;;;;;;23.46;46.85;99338.97;8616940;22;20195;-93
2021/08/24 17:22:59;;;;;;;6.63;5.93;;;;;;;24.20;46.24;99373.03;8618582;22;20611;-92
2021/08/24 17:26:23;;;;;;;7.40;5.67;;;;;;;24.97;44.25;99376.09;8632862;23;20306;-92
2021/08/24 17:29:45;;;;;;;6.80;6.17;;;;;;;24.56;44.53;99324.97;8632706;23;20181;-92
2021/08/24 17:33:07;;;;;;;6.70;5.70;;;;;;;23.88;44.68;99262.38;8633139;22;20182;-92
2021/08/24 17:36:29;;;;;;;7.10;6.17;;;;;;;23.98;44.30;99243.06;8633358;23;20180;-92
2021/08/24 17:39:51;;;;;;;6.40;5.80;;;;;;;24.38;44.50;99331.13;8632369;23;20297;-90
2021/08/24 17:43:15;;;;;;;6.47;5.87;;;;;;;23.23;46.23;99253.34;8632313;22;20181;-92
2021/08/24 17:46:37;;;;;;;7.00;5.80;;;;;;;23.88;45.97;99336.75;8632508;23;20501;-92
2021/08/24 17:50:03;;;;;;;5.90;5.30;;;;;;;24.52;45.49;99379.03;8632972;22;20811;-92
2021/08/24 17:53:25;;;;;;;6.73;5.83;;;;;;;24.07;44.88;99337.00;8633015;23;20165;-92
2021/08/24 17:56:47;;;;;;;7.17;5.40;;;;;;;24.12;45.08;99314.94;8632025;22;20613;-92
2021/08/24 18:00:13;;;;;;;6.03;5.50;;;;;;;24.09;45.96;99376.09;8632003;22;20509;-92
2021/08/24 18:03:35;;;;;;;6.43;5.87;;;;;;;23.29;46.71;99304.53;8617836;22;20176;-92
2021/08/24 18:06:57;;;;;;;7.23;6.53;;;;;;;23.16;47.42;99275.66;8632936;22;20179;-92
2021/08/24 18:10:25;;;;;;;6.77;5.43;;;;;;;22.98;47.74;99333.94;8632354;23;20184;-92
2021/08/24 18:13:49;;;;;;;6.83;6.20;;;;;;;22.91;48.03;99384.78;8632326;22;20209;-92
2021/08/24 18:17:12;;;;;;;6.97;5.97;;;;;;;22.81;47.43;99264.59;8632080;22;20181;-92
2021/08/24 18:24:18;;;;;;;7.93;6.00;;;;;;;22.69;48.49;99324.50;8617592;22;20215;-92
2021/08/24 18:27:40;;;;;;;6.33;5.80;;;;;;;23.33;47.55;99368.94;8632403;22;20183;-91
2021/08/24 18:31:03;;;;;;;6.80;5.50;;;;;;;22.89;47.37;99280.53;8605264;23;20177;-92
2021/08/24 18:34:28;;;;;;;6.60;5.40;;;;;;;22.87;47.06;99284.66;8615927;22;20179;-92
2021/08/24 18:37:51;;;;;;;6.60;5.67;;;;;;;22.94;47.12;99290.72;8631165;23;20280;-92
2021/08/24 18:41:13;;;;;;;6.87;6.17;;;;;;;23.52;47.04;99392.91;8615683;22;20251;-92
2021/08/24 18:44:36;;;;;;;6.60;6.00;;;;;;;23.20;46.51;99326.25;8630316;22;20188;-92
2021/08/24 18:47:58;;;;;;;6.90;6.30;;;;;;;23.21;47.31;99382.13;8630306;23;20176;-91
2021/08/24 18:51:24;;;;;;;7.13;6.53;;;;;;;22.41;47.78;99275.44;8629977;22;20201;-91
2021/08/24 18:54:46;;;;;;;6.50;5.90;;;;;;;23.02;47.48;99389.22;8631185;22;20586;-91
2021/08/24 18:58:07;;;;;;;7.23;6.37;;;;;;;22.34;47.28;99257.56;8630327;23;20170;-91
2021/08/24 19:01:32;;;;;;;6.60;6.00;;;;;;;23.03;47.39;99399.13;8630403;23;20202;-91
2021/08/24 19:04:54;;;;;;;7.27;6.67;;;;;;;21.73;48.40;99256.44;8630295;23;20179;-91
2021/08/24 19:17:07;;;;;;;7.20;6.60;;;;;;;23.01;48.31;99437.09;8386648;23;20270;-91
2021/08/24 19:50:37;;;;;;;7.83;7.13;;;;;;;21.47;51.42;99452.19;8413403;22;20212;-84
2021/08/24 19:53:58;;;;;;;7.27;6.63;;;;;;;21.85;50.00;99401.78;8608421;23;20193;-83
2021/08/24 19:57:20;;;;;;;8.07;7.30;;;;;;;22.24;48.93;99425.13;8607232;23;20162;-84
2021/08/24 20:00:42;;;;;;;7.57;6.87;;;;;;;22.53;48.85;99440.19;8618213;23;20190;-84
2021/08/24 20:04:04;;;;;;;8.17;7.37;;;;;;;21.46;50.92;99438.72;8609082;23;20188;-84
2021/08/24 20:07:27;;;;;;;7.73;6.93;;;;;;;21.34;51.37;99438.03;8623618;23;20187;-83
2021/08/24 20:10:49;;;;;;;9.37;7.53;;;;;;;21.53;51.42;99423.69;8608177;23;20176;-82
2021/08/24 20:14:14;;;;;;;8.13;7.33;;;;;;;21.79;50.50;99433.88;8609196;23;20183;-84
2021/08/24 20:17:36;;;;;;;9.60;7.53;;;;;;;21.78;50.15;99401.19;8622768;23;20167;-84
2021/08/24 20:20:59;;;;;;;8.50;7.60;;;;;;;21.94;49.71;99420.25;8606397;23;20206;-83
2021/08/24 20:24:24;;;;;;;8.27;7.37;;;;;;;21.86;50.04;99423.47;8623610;23;20309;-84
2021/08/24 20:27:45;;;;;;;8.17;7.37;;;;;;;21.68;50.90;99432.13;8623276;23;20176;-81
2021/08/24 20:31:07;;;;;;;8.53;7.73;;;;;;;21.62;50.68;99419.41;8609417;23;20206;-81
2021/08/24 20:34:29;;;;;;;9.07;8.17;;;;;;;21.76;50.35;99423.38;8609654;23;20536;-82
2021/08/24 20:37:51;;;;;;;7.90;7.20;;;;;;;21.76;50.32;99434.38;8609429;23;20238;-80
2021/08/24 20:41:16;;;;;;;7.87;7.20;;;;;;;21.54;50.47;99433.59;8609003;23;20191;-84
2021/08/24 20:44:39;;;;;;;8.47;7.77;;;;;;;21.68;50.97;99434.03;8623979;23;20196;-81
2021/08/24 20:48:01;;;;;;;8.43;7.63;;;;;;;21.85;50.24;99426.47;8609858;23;20175;-82
2021/08/24 20:51:23;;;;;;;8.63;7.77;;;;;;;21.89;50.17;99424.88;8658692;23;20174;-81
2021/08/24 20:54:45;;;;;;;7.90;7.00;;;;;;;21.52;51.22;99427.53;8665643;22;20233;-81
2021/08/24 20:58:08;;;;;;;9.77;7.43;;;;;;;21.56;50.98;99436.91;8651781;23;20184;-82
